Time;durP1;ratioP1;P1;durP2;ratioP2;P2;SDS_P1;SDS_P2;PMS_P1;PMS_P2;Temp;Humidity;BMP_temperature;BMP_pressure;BME280_temperature;BME280_humidity;BME280_pressure;Samples;Min_cycle;Max_cycle;Signal;HPM_P1;HPM_P2
2022/07/02 00:01:06;;;;;;;8.67;6.90;;;;;;;;;;767607;182;817534;-75
2022/07/02 00:03:32;;;;;;;10.43;7.93;;;;;;;;;;767722;183;818351;-76
2022/07/02 00:05:58;;;;;;;8.77;6.87;;;;;;;;;;760111;183;918659;-75
2022/07/02 00:08:24;;;;;;;10.77;7.83;;;;;;;;;;761894;183;914779;-76
2022/07/02 00:10:50;;;;;;;10.23;8.90;;;;;;;;;;762670;183;920003;-75
2022/07/02 00:13:15;;;;;;;9.70;8.70;;;;;;;;;;762646;183;916804;-75
2022/07/02 00:15:41;;;;;;;13.83;8.77;;;;;;;;;;763222;181;916368;-75
2022/07/02 00:18:07;;;;;;;13.13;9.75;;;;;;;;;;762889;183;815084;-75
2022/07/02 00:20:33;;;;;;;10.70;9.13;;;;;;;;;;765182;183;847186;-75
2022/07/02 00:22:58;;;;;;;19.77;9.33;;;;;;;;;;761333;183;818751;-75
2022/07/02 00:25:24;;;;;;;11.77;8.83;;;;;;;;;;759141;183;921168;-76
2022/07/02 00:27:50;;;;;;;16.13;9.10;;;;;;;;;;763837;183;919033;-75
2022/07/02 00:30:16;;;;;;;15.10;8.67;;;;;;;;;;762908;179;813076;-74
2022/07/02 00:32:42;;;;;;;10.90;9.47;;;;;;;;;;759368;181;914923;-76
2022/07/02 00:35:09;;;;;;;20.57;10.60;;;;;;;;;;758461;183;914525;-74
2022/07/02 00:37:36;;;;;;;16.87;9.93;;;;;;;;;;764655;181;817442;-75
2022/07/02 00:40:02;;;;;;;11.70;8.90;;;;;;;;;;758976;183;916080;-75
2022/07/02 00:42:28;;;;;;;17.27;9.87;;;;;;;;;;760856;183;934684;-75
2022/07/02 00:44:54;;;;;;;12.07;10.00;;;;;;;;;;768152;183;918465;-76
2022/07/02 00:47:21;;;;;;;10.13;8.60;;;;;;;;;;759853;184;913416;-76
2022/07/02 00:49:46;;;;;;;12.03;8.97;;;;;;;;;;757949;180;919434;-76
2022/07/02 00:52:12;;;;;;;12.90;9.63;;;;;;;;;;766516;183;614583;-76
2022/07/02 00:54:38;;;;;;;16.50;10.10;;;;;;;;;;760005;183;719760;-77
2022/07/02 00:57:04;;;;;;;11.57;8.90;;;;;;;;;;757834;181;914093;-77
2022/07/02 00:59:30;;;;;;;12.50;9.73;;;;;;;;;;764658;182;813944;-76
2022/07/02 01:01:56;;;;;;;15.00;10.00;;;;;;;;;;769342;182;810108;-76
2022/07/02 01:04:23;;;;;;;10.73;8.33;;;;;;;;;;761687;183;808992;-72
2022/07/02 01:06:48;;;;;;;9.13;8.17;;;;;;;;;;757743;182;625639;-70
2022/07/02 01:11:45;;;;;;;12.30;9.63;;;;;;;;;;766598;183;633191;-68
2022/07/02 01:14:11;;;;;;;19.60;10.83;;;;;;;;;;764720;183;632026;-68
2022/07/02 01:16:37;;;;;;;13.10;8.93;;;;;;;;;;768108;183;627130;-69
2022/07/02 01:19:03;;;;;;;14.33;9.23;;;;;;;;;;764462;183;625274;-69
2022/07/02 01:21:28;;;;;;;19.73;9.77;;;;;;;;;;757261;183;917680;-70
2022/07/02 01:23:54;;;;;;;9.60;8.60;;;;;;;;;;759074;183;918880;-70
2022/07/02 01:26:20;;;;;;;15.50;9.50;;;;;;;;;;761382;183;918849;-70
2022/07/02 01:28:46;;;;;;;10.67;8.97;;;;;;;;;;759582;183;1022781;-71
2022/07/02 01:31:12;;;;;;;12.67;9.20;;;;;;;;;;758142;183;945545;-71
2022/07/02 01:33:38;;;;;;;10.93;9.20;;;;;;;;;;763732;183;1020134;-71
2022/07/02 01:36:04;;;;;;;10.07;8.67;;;;;;;;;;759754;183;918760;-72
2022/07/02 01:38:29;;;;;;;12.93;10.10;;;;;;;;;;757340;183;919586;-72
2022/07/02 01:41:38;;;;;;;11.77;10.13;;;;;;;;;;761471;183;918894;-71
2022/07/02 01:43:21;;;;;;;11.60;9.50;;;;;;;;;;761976;183;918472;-73
2022/07/02 01:45:47;;;;;;;10.97;9.60;;;;;;;;;;753610;183;920489;-73
2022/07/02 01:48:13;;;;;;;13.60;9.10;;;;;;;;;;756260;183;918926;-74
2022/07/02 01:50:39;;;;;;;13.77;9.87;;;;;;;;;;765852;183;919752;-73
2022/07/02 01:53:05;;;;;;;17.53;9.93;;;;;;;;;;759572;183;919135;-72
2022/07/02 01:55:31;;;;;;;21.27;9.43;;;;;;;;;;759645;184;917404;-74
2022/07/02 01:57:56;;;;;;;12.90;8.87;;;;;;;;;;761442;183;917181;-72
2022/07/02 02:00:22;;;;;;;11.57;8.57;;;;;;;;;;759351;183;915442;-73
2022/07/02 02:02:48;;;;;;;11.80;8.10;;;;;;;;;;757239;183;1016697;-72
2022/07/02 02:05:14;;;;;;;10.13;8.50;;;;;;;;;;762751;183;915259;-71
2022/07/02 02:07:40;;;;;;;12.00;9.13;;;;;;;;;;756577;182;919877;-68
2022/07/02 02:10:06;;;;;;;10.50;8.00;;;;;;;;;;760671;183;915458;-69
2022/07/02 02:12:32;;;;;;;12.83;9.43;;;;;;;;;;760207;182;919436;-69
2022/07/02 02:14:58;;;;;;;12.30;8.00;;;;;;;;;;766212;183;918493;-68
2022/07/02 02:17:24;;;;;;;11.70;8.47;;;;;;;;;;757251;183;919304;-68
2022/07/02 02:19:50;;;;;;;11.90;9.73;;;;;;;;;;757102;183;919660;-67
2022/07/02 02:22:16;;;;;;;11.17;8.60;;;;;;;;;;763049;183;919436;-67
2022/07/02 02:24:41;;;;;;;11.07;8.40;;;;;;;;;;762234;183;919834;-67
2022/07/02 02:27:07;;;;;;;13.20;9.40;;;;;;;;;;762966;183;919965;-69
2022/07/02 02:29:33;;;;;;;10.47;9.20;;;;;;;;;;762233;183;919123;-68
2022/07/02 02:31:59;;;;;;;19.00;9.07;;;;;;;;;;755486;183;918310;-68
2022/07/02 02:34:25;;;;;;;11.33;9.17;;;;;;;;;;754601;184;919336;-68
2022/07/02 02:36:50;;;;;;;12.10;9.73;;;;;;;;;;757683;183;918692;-67
2022/07/02 02:39:16;;;;;;;13.37;10.67;;;;;;;;;;766246;182;977303;-70
2022/07/02 02:41:42;;;;;;;13.02;9.45;;;;;;;;;;757369;181;919886;-68
2022/07/02 02:44:08;;;;;;;11.60;9.07;;;;;;;;;;760350;183;918496;-67
2022/07/02 02:46:34;;;;;;;16.40;10.57;;;;;;;;;;767953;183;918835;-69
2022/07/02 02:49:00;;;;;;;14.80;10.00;;;;;;;;;;759218;183;919032;-68
2022/07/02 02:51:25;;;;;;;14.50;10.70;;;;;;;;;;759001;183;924538;-68
2022/07/02 02:53:51;;;;;;;17.20;9.97;;;;;;;;;;767087;183;919462;-68
2022/07/02 02:56:17;;;;;;;15.83;10.80;;;;;;;;;;765418;183;620221;-67
2022/07/02 02:58:43;;;;;;;14.40;10.87;;;;;;;;;;762856;184;630465;-67
2022/07/02 03:01:09;;;;;;;20.80;10.07;;;;;;;;;;765234;183;918498;-67
2022/07/02 03:03:35;;;;;;;13.30;9.93;;;;;;;;;;755672;183;918550;-66
2022/07/02 03:06:01;;;;;;;13.97;9.50;;;;;;;;;;759678;183;919303;-66
2022/07/02 03:08:26;;;;;;;14.40;10.93;;;;;;;;;;759286;183;925413;-65
2022/07/02 03:10:52;;;;;;;14.73;10.50;;;;;;;;;;768032;183;918943;-65
2022/07/02 03:13:18;;;;;;;16.83;10.82;;;;;;;;;;757286;183;920296;-65
2022/07/02 03:15:44;;;;;;;12.83;10.30;;;;;;;;;;757186;183;1025435;-66
2022/07/02 03:18:10;;;;;;;15.43;10.27;;;;;;;;;;764665;183;918500;-66
2022/07/02 03:20:36;;;;;;;22.93;10.97;;;;;;;;;;758843;182;919702;-66
2022/07/02 03:23:02;;;;;;;22.10;11.52;;;;;;;;;;758968;182;920725;-67
2022/07/02 03:25:27;;;;;;;15.93;10.83;;;;;;;;;;764925;183;919532;-67
2022/07/02 03:27:53;;;;;;;16.97;11.70;;;;;;;;;;761569;182;920089;-67
2022/07/02 03:30:19;;;;;;;15.50;9.97;;;;;;;;;;759487;183;920243;-67
2022/07/02 03:32:45;;;;;;;18.43;10.87;;;;;;;;;;761814;183;919523;-66
2022/07/02 03:35:11;;;;;;;16.93;11.10;;;;;;;;;;771517;182;918970;-66
2022/07/02 03:37:37;;;;;;;23.15;12.50;;;;;;;;;;757438;183;919013;-66
2022/07/02 03:40:03;;;;;;;18.73;12.63;;;;;;;;;;759275;183;919274;-66
2022/07/02 03:42:29;;;;;;;15.53;11.43;;;;;;;;;;762240;183;1020439;-66
2022/07/02 03:44:55;;;;;;;17.40;12.37;;;;;;;;;;763435;183;917755;-67
2022/07/02 03:47:21;;;;;;;17.10;12.77;;;;;;;;;;763093;183;918068;-66
2022/07/02 03:49:47;;;;;;;17.73;12.30;;;;;;;;;;764516;183;917843;-66
2022/07/02 03:52:13;;;;;;;17.20;12.40;;;;;;;;;;756811;182;918519;-68
2022/07/02 03:54:39;;;;;;;15.85;11.27;;;;;;;;;;760961;182;1110284;-66
2022/07/02 03:57:05;;;;;;;23.73;13.60;;;;;;;;;;761889;183;918677;-66
2022/07/02 03:59:31;;;;;;;23.37;12.47;;;;;;;;;;767002;182;921049;-66
2022/07/02 04:01:57;;;;;;;16.37;12.60;;;;;;;;;;763439;179;919022;-67
2022/07/02 04:04:22;;;;;;;18.33;13.20;;;;;;;;;;761370;183;633991;-67
2022/07/02 04:06:48;;;;;;;15.73;12.20;;;;;;;;;;767568;182;632528;-66
2022/07/02 04:09:14;;;;;;;16.97;11.20;;;;;;;;;;762720;183;630941;-68
2022/07/02 04:11:40;;;;;;;16.50;12.17;;;;;;;;;;761199;183;651497;-68
2022/07/02 04:14:06;;;;;;;21.60;12.27;;;;;;;;;;762421;184;632951;-68
2022/07/02 04:16:32;;;;;;;17.00;12.00;;;;;;;;;;757570;183;920885;-67
2022/07/02 04:18:57;;;;;;;19.63;13.23;;;;;;;;;;762481;183;628934;-69
2022/07/02 04:21:23;;;;;;;14.67;10.80;;;;;;;;;;768097;184;621221;-68
2022/07/02 04:23:49;;;;;;;20.07;12.17;;;;;;;;;;762698;183;626721;-68
2022/07/02 04:26:15;;;;;;;19.80;13.10;;;;;;;;;;760892;183;614906;-68
2022/07/02 04:28:41;;;;;;;17.93;11.83;;;;;;;;;;755839;183;916424;-68
2022/07/02 04:31:07;;;;;;;19.70;12.77;;;;;;;;;;763956;182;619261;-68
2022/07/02 04:33:32;;;;;;;20.20;13.03;;;;;;;;;;762077;183;915098;-68
2022/07/02 04:35:58;;;;;;;21.80;12.87;;;;;;;;;;761704;182;916013;-68
2022/07/02 04:38:24;;;;;;;23.90;13.37;;;;;;;;;;765749;183;914136;-68
2022/07/02 04:40:50;;;;;;;17.73;13.17;;;;;;;;;;760346;183;916761;-68
2022/07/02 04:43:16;;;;;;;15.47;10.83;;;;;;;;;;763319;183;1018653;-69
2022/07/02 04:45:42;;;;;;;17.10;12.30;;;;;;;;;;769507;183;628573;-69
2022/07/02 04:48:08;;;;;;;17.50;11.60;;;;;;;;;;760601;183;915696;-69
2022/07/02 04:50:33;;;;;;;16.23;12.10;;;;;;;;;;758032;183;919643;-68
2022/07/02 04:52:59;;;;;;;19.03;12.03;;;;;;;;;;762030;183;915116;-68
2022/07/02 04:55:25;;;;;;;16.43;12.53;;;;;;;;;;771182;182;918691;-69
2022/07/02 04:57:51;;;;;;;15.70;11.40;;;;;;;;;;753776;183;921162;-68
2022/07/02 05:00:17;;;;;;;16.57;11.53;;;;;;;;;;761565;183;638367;-69
2022/07/02 05:02:43;;;;;;;31.03;12.07;;;;;;;;;;766504;183;912033;-69
2022/07/02 05:05:09;;;;;;;17.40;11.90;;;;;;;;;;758683;183;919687;-69
2022/07/02 05:07:34;;;;;;;20.30;11.93;;;;;;;;;;758617;183;918694;-69
2022/07/02 05:10:00;;;;;;;19.67;12.30;;;;;;;;;;762966;183;919250;-69
2022/07/02 05:12:26;;;;;;;22.83;12.13;;;;;;;;;;756435;184;918546;-70
2022/07/02 05:14:52;;;;;;;19.70;12.60;;;;;;;;;;762965;183;626588;-69
2022/07/02 05:17:18;;;;;;;21.37;12.50;;;;;;;;;;764688;183;911639;-69
2022/07/02 05:19:44;;;;;;;16.23;12.47;;;;;;;;;;767171;183;619147;-70
2022/07/02 05:22:10;;;;;;;17.10;11.77;;;;;;;;;;761052;183;916574;-69
2022/07/02 05:24:36;;;;;;;15.53;11.83;;;;;;;;;;758318;183;915265;-69
2022/07/02 05:27:01;;;;;;;16.40;12.87;;;;;;;;;;764777;184;915514;-69
2022/07/02 05:29:27;;;;;;;15.10;12.20;;;;;;;;;;756564;183;1077410;-70
2022/07/02 05:31:53;;;;;;;17.50;12.43;;;;;;;;;;761040;183;619895;-68
2022/07/02 05:34:19;;;;;;;18.43;13.20;;;;;;;;;;766568;183;612654;-67
2022/07/02 05:36:45;;;;;;;15.63;11.30;;;;;;;;;;761775;183;1021024;-66
2022/07/02 05:39:11;;;;;;;16.73;12.10;;;;;;;;;;762404;183;624635;-66
2022/07/02 05:41:36;;;;;;;15.47;11.13;;;;;;;;;;766181;181;624910;-66
2022/07/02 05:44:02;;;;;;;17.10;11.80;;;;;;;;;;764597;182;628954;-65
2022/07/02 05:46:28;;;;;;;17.50;11.93;;;;;;;;;;762654;183;637343;-65
2022/07/02 05:48:54;;;;;;;14.90;10.50;;;;;;;;;;760620;183;926610;-65
2022/07/02 05:51:20;;;;;;;18.33;12.77;;;;;;;;;;768139;182;608247;-65
2022/07/02 05:53:46;;;;;;;16.30;10.90;;;;;;;;;;763734;183;925985;-65
2022/07/02 05:56:12;;;;;;;16.47;11.77;;;;;;;;;;761353;183;919373;-65
2022/07/02 05:58:38;;;;;;;19.93;10.73;;;;;;;;;;765662;182;816202;-66
2022/07/02 06:01:04;;;;;;;18.33;10.33;;;;;;;;;;763760;183;919142;-65
2022/07/02 06:03:30;;;;;;;13.87;10.30;;;;;;;;;;760761;183;919536;-66
2022/07/02 06:08:27;;;;;;;13.50;10.50;;;;;;;;;;770155;183;918395;-66
2022/07/02 06:10:53;;;;;;;15.43;9.87;;;;;;;;;;760934;183;918894;-67
2022/07/02 06:13:19;;;;;;;13.05;9.32;;;;;;;;;;762271;183;915605;-66
2022/07/02 06:15:45;;;;;;;16.17;9.67;;;;;;;;;;765023;183;918945;-67
2022/07/02 06:18:12;;;;;;;13.20;10.30;;;;;;;;;;760535;183;918950;-68
2022/07/02 06:20:37;;;;;;;12.83;10.00;;;;;;;;;;757142;183;918598;-67
2022/07/02 06:23:03;;;;;;;18.23;10.30;;;;;;;;;;762346;184;916605;-65
2022/07/02 06:25:28;;;;;;;24.33;12.43;;;;;;;;;;761282;183;918422;-67
2022/07/02 06:27:54;;;;;;;32.05;12.23;;;;;;;;;;762113;183;1019503;-68
2022/07/02 06:30:20;;;;;;;12.93;9.67;;;;;;;;;;763226;183;629679;-66
2022/07/02 06:32:48;;;;;;;16.23;11.30;;;;;;;;;;765771;183;623963;-67
2022/07/02 06:35:12;;;;;;;17.77;11.30;;;;;;;;;;759418;183;631215;-65
2022/07/02 06:37:38;;;;;;;18.83;11.23;;;;;;;;;;761557;183;630333;-66
2022/07/02 06:40:04;;;;;;;16.90;11.87;;;;;;;;;;764818;183;676260;-64
2022/07/02 06:42:30;;;;;;;11.97;9.73;;;;;;;;;;761347;183;633055;-65
2022/07/02 06:44:56;;;;;;;16.23;11.27;;;;;;;;;;759919;183;917841;-65
2022/07/02 06:47:22;;;;;;;15.60;11.40;;;;;;;;;;765725;183;643458;-65
2022/07/02 06:49:48;;;;;;;17.50;12.33;;;;;;;;;;762632;183;662613;-66
2022/07/02 06:52:13;;;;;;;15.30;12.13;;;;;;;;;;761319;183;911791;-65
2022/07/02 06:54:39;;;;;;;14.90;10.03;;;;;;;;;;768440;182;633341;-67
2022/07/02 06:57:05;;;;;;;15.60;11.77;;;;;;;;;;762098;183;811292;-66
2022/07/02 06:59:31;;;;;;;18.93;11.60;;;;;;;;;;757172;183;923784;-67
2022/07/02 07:01:57;;;;;;;17.23;12.13;;;;;;;;;;760828;182;642465;-66
2022/07/02 07:04:23;;;;;;;18.13;12.80;;;;;;;;;;764827;183;634401;-67
2022/07/02 07:06:51;;;;;;;15.43;12.27;;;;;;;;;;762132;182;917567;-68
2022/07/02 07:09:15;;;;;;;25.20;12.37;;;;;;;;;;757604;183;931237;-67
2022/07/02 07:11:40;;;;;;;12.90;11.10;;;;;;;;;;765918;183;925468;-68
2022/07/02 07:14:06;;;;;;;16.37;11.23;;;;;;;;;;763127;183;917560;-69
2022/07/02 07:16:32;;;;;;;14.50;10.43;;;;;;;;;;762640;183;913806;-69
2022/07/02 07:19:06;;;;;;;12.50;10.53;;;;;;;;;;765679;183;915959;-69
2022/07/02 07:21:32;;;;;;;12.00;9.70;;;;;;;;;;767983;183;625927;-70
2022/07/02 07:23:57;;;;;;;10.73;9.13;;;;;;;;;;759506;183;638926;-70
2022/07/02 07:26:23;;;;;;;11.93;10.50;;;;;;;;;;762459;183;615326;-71
2022/07/02 07:28:49;;;;;;;16.70;11.10;;;;;;;;;;764368;183;809767;-73
2022/07/02 07:31:20;;;;;;;11.67;10.17;;;;;;;;;;760027;183;624593;-71
2022/07/02 07:33:41;;;;;;;10.93;9.83;;;;;;;;;;760776;183;657977;-69
2022/07/02 07:36:07;;;;;;;12.10;9.37;;;;;;;;;;766398;183;634993;-73
2022/07/02 07:38:32;;;;;;;12.40;8.93;;;;;;;;;;761618;183;621401;-68
2022/07/02 07:40:58;;;;;;;11.50;9.20;;;;;;;;;;760512;183;616985;-71
2022/07/02 07:43:24;;;;;;;12.90;8.90;;;;;;;;;;762235;183;625020;-70
2022/07/02 07:45:50;;;;;;;10.80;9.07;;;;;;;;;;765161;183;633377;-70
2022/07/02 07:48:16;;;;;;;11.90;10.37;;;;;;;;;;760745;183;631545;-71
2022/07/02 07:50:42;;;;;;;32.30;29.70;;;;;;;;;;760308;183;634697;-71
2022/07/02 07:53:08;;;;;;;77.80;71.67;;;;;;;;;;764389;183;641411;-71
2022/07/02 07:55:33;;;;;;;15.97;14.37;;;;;;;;;;761924;183;626776;-71
2022/07/02 07:57:59;;;;;;;13.30;10.10;;;;;;;;;;760644;183;636895;-72
2022/07/02 08:00:25;;;;;;;12.90;10.50;;;;;;;;;;766875;183;635421;-72
2022/07/02 08:02:51;;;;;;;11.73;9.87;;;;;;;;;;761234;183;659482;-72
2022/07/02 08:05:17;;;;;;;13.67;11.20;;;;;;;;;;762191;181;641738;-72
2022/07/02 08:07:43;;;;;;;12.53;10.27;;;;;;;;;;764632;182;625106;-75
2022/07/02 08:10:10;;;;;;;17.23;9.90;;;;;;;;;;769832;179;620795;-74
2022/07/02 08:12:34;;;;;;;13.47;9.47;;;;;;;;;;758166;183;616150;-72
2022/07/02 08:15:00;;;;;;;13.53;11.47;;;;;;;;;;763000;182;642373;-74
2022/07/02 08:17:26;;;;;;;13.90;10.17;;;;;;;;;;766097;183;622626;-75
2022/07/02 08:19:52;;;;;;;12.10;9.70;;;;;;;;;;762563;183;636955;-73
2022/07/02 08:22:19;;;;;;;11.10;9.53;;;;;;;;;;760294;183;641462;-74
2022/07/02 08:24:44;;;;;;;13.37;10.00;;;;;;;;;;765868;183;628813;-75
2022/07/02 08:27:10;;;;;;;12.40;9.83;;;;;;;;;;757807;183;614904;-74
2022/07/02 08:29:35;;;;;;;14.03;11.03;;;;;;;;;;761888;183;633291;-72
2022/07/02 08:32:01;;;;;;;12.60;9.03;;;;;;;;;;763044;183;614890;-70
2022/07/02 08:34:27;;;;;;;10.73;8.10;;;;;;;;;;775183;179;627009;-73
2022/07/02 08:36:53;;;;;;;72.13;35.30;;;;;;;;;;764134;183;619951;-74
2022/07/02 08:39:19;;;;;;;52.23;26.40;;;;;;;;;;762995;183;631599;-68
2022/07/02 08:41:45;;;;;;;33.63;22.47;;;;;;;;;;767651;183;624837;-70
2022/07/02 08:44:11;;;;;;;17.20;12.77;;;;;;;;;;761712;183;616326;-71
2022/07/02 08:46:37;;;;;;;40.90;25.97;;;;;;;;;;761318;183;623545;-71
2022/07/02 08:49:03;;;;;;;44.83;28.60;;;;;;;;;;766439;184;617975;-73
2022/07/02 08:51:29;;;;;;;24.33;15.50;;;;;;;;;;762899;183;636983;-70
2022/07/02 08:53:55;;;;;;;20.37;13.70;;;;;;;;;;763456;183;702578;-71
2022/07/02 08:56:21;;;;;;;25.67;14.63;;;;;;;;;;759085;183;631939;-70
2022/07/02 08:58:49;;;;;;;19.00;11.00;;;;;;;;;;766042;181;629220;-71
2022/07/02 09:01:13;;;;;;;34.80;17.03;;;;;;;;;;758975;183;625930;-72
2022/07/02 09:03:39;;;;;;;26.83;17.77;;;;;;;;;;763142;183;674915;-70
2022/07/02 09:06:06;;;;;;;20.90;16.07;;;;;;;;;;766816;183;615872;-72
2022/07/02 09:08:31;;;;;;;29.27;18.03;;;;;;;;;;760397;184;627702;-71
2022/07/02 09:10:57;;;;;;;13.50;10.30;;;;;;;;;;761805;183;662391;-73
2022/07/02 09:13:23;;;;;;;27.40;18.70;;;;;;;;;;764151;183;620885;-70
2022/07/02 09:15:49;;;;;;;17.87;14.30;;;;;;;;;;762148;183;643173;-74
2022/07/02 09:18:15;;;;;;;17.90;13.90;;;;;;;;;;763026;183;628431;-73
2022/07/02 09:20:41;;;;;;;14.30;11.13;;;;;;;;;;767373;182;628238;-72
2022/07/02 09:23:07;;;;;;;15.57;13.37;;;;;;;;;;763199;183;637845;-72
2022/07/02 09:25:33;;;;;;;11.47;9.00;;;;;;;;;;758643;183;918037;-72
2022/07/02 09:27:59;;;;;;;10.57;8.93;;;;;;;;;;757681;183;918385;-72
2022/07/02 09:30:25;;;;;;;10.77;8.90;;;;;;;;;;768425;183;634422;-72
2022/07/02 09:33:28;;;;;;;13.40;9.13;;;;;;;;;;768407;182;644389;-71
2022/07/02 09:35:17;;;;;;;11.27;9.20;;;;;;;;;;762709;183;634806;-71
2022/07/02 09:37:44;;;;;;;12.60;9.83;;;;;;;;;;765823;179;622965;-70
2022/07/02 09:40:10;;;;;;;12.90;9.63;;;;;;;;;;766670;179;623696;-71
2022/07/02 09:42:36;;;;;;;12.60;9.63;;;;;;;;;;762428;183;633128;-72
2022/07/02 09:45:02;;;;;;;9.90;7.93;;;;;;;;;;764377;183;651946;-69
2022/07/02 09:47:37;;;;;;;15.70;8.57;;;;;;;;;;760911;183;614312;-74
2022/07/02 09:50:03;;;;;;;10.23;8.67;;;;;;;;;;759948;183;715301;-73
2022/07/02 09:52:29;;;;;;;11.53;8.43;;;;;;;;;;761304;183;632898;-72
2022/07/02 09:54:55;;;;;;;10.27;7.53;;;;;;;;;;765017;183;628563;-70
2022/07/02 09:57:21;;;;;;;11.97;10.27;;;;;;;;;;763151;183;638304;-72
2022/07/02 09:59:46;;;;;;;14.87;10.77;;;;;;;;;;767400;183;636860;-73
2022/07/02 10:02:22;;;;;;;8.93;7.00;;;;;;;;;;756409;186;635505;-68
2022/07/02 10:04:47;;;;;;;9.20;7.20;;;;;;;;;;768541;182;623615;-72
2022/07/02 10:07:13;;;;;;;9.50;7.23;;;;;;;;;;761521;183;638899;-72
2022/07/02 10:09:39;;;;;;;9.40;8.40;;;;;;;;;;761356;183;648911;-72
2022/07/02 10:12:05;;;;;;;7.93;6.53;;;;;;;;;;763757;183;614509;-72
2022/07/02 10:14:31;;;;;;;9.20;7.30;;;;;;;;;;769926;183;613539;-76
2022/07/02 10:16:57;;;;;;;8.37;7.07;;;;;;;;;;761643;183;729870;-74
2022/07/02 10:19:23;;;;;;;7.93;6.27;;;;;;;;;;758398;183;817033;-71
2022/07/02 10:21:49;;;;;;;7.40;6.40;;;;;;;;;;768059;183;621801;-76
2022/07/02 10:24:14;;;;;;;8.70;6.03;;;;;;;;;;762662;183;635070;-74
2022/07/02 10:26:40;;;;;;;8.70;6.30;;;;;;;;;;761864;183;623965;-74
2022/07/02 10:29:06;;;;;;;8.50;7.23;;;;;;;;;;768128;181;615650;-76
2022/07/02 10:31:32;;;;;;;7.60;6.63;;;;;;;;;;763903;183;919169;-76
2022/07/02 10:34:01;;;;;;;7.87;6.30;;;;;;;;;;763196;182;624730;-71
2022/07/02 10:36:27;;;;;;;7.67;5.63;;;;;;;;;;764329;179;620807;-70
2022/07/02 10:38:56;;;;;;;6.80;5.93;;;;;;;;;;767309;183;615697;-73
2022/07/02 10:41:24;;;;;;;10.70;7.30;;;;;;;;;;763278;183;674007;-74
2022/07/02 10:43:50;;;;;;;7.93;6.70;;;;;;;;;;765092;180;654391;-71
2022/07/02 10:46:16;;;;;;;7.90;6.83;;;;;;;;;;769798;183;624983;-71
2022/07/02 10:48:46;;;;;;;9.30;6.87;;;;;;;;;;763647;183;626610;-77
2022/07/02 10:51:18;;;;;;;13.43;7.57;;;;;;;;;;759022;184;639219;-73
2022/07/02 10:53:44;;;;;;;9.47;7.90;;;;;;;;;;765527;183;627826;-74
2022/07/02 10:56:09;;;;;;;9.23;7.40;;;;;;;;;;767149;183;635823;-74
2022/07/02 10:58:35;;;;;;;7.43;6.40;;;;;;;;;;763399;183;625794;-75
2022/07/02 11:01:07;;;;;;;7.73;6.93;;;;;;;;;;762148;183;629112;-72
2022/07/02 11:03:33;;;;;;;8.00;7.20;;;;;;;;;;763108;183;640135;-70
2022/07/02 11:06:02;;;;;;;9.80;8.30;;;;;;;;;;765131;183;633267;-74
2022/07/02 11:08:46;;;;;;;10.03;7.47;;;;;;;;;;760254;183;628685;-72
2022/07/02 11:11:18;;;;;;;9.30;7.80;;;;;;;;;;762945;183;632320;-73
2022/07/02 11:13:44;;;;;;;11.93;7.93;;;;;;;;;;764113;183;629297;-74
2022/07/02 11:16:16;;;;;;;9.50;7.17;;;;;;;;;;768624;182;617814;-75
2022/07/02 11:18:42;;;;;;;8.10;6.80;;;;;;;;;;768228;183;623417;-71
2022/07/02 11:21:08;;;;;;;9.73;7.10;;;;;;;;;;761488;183;916060;-75
2022/07/02 11:23:34;;;;;;;6.83;5.73;;;;;;;;;;763506;183;619264;-76
2022/07/02 11:25:59;;;;;;;9.33;6.80;;;;;;;;;;761037;183;644757;-74
2022/07/02 11:28:25;;;;;;;7.67;6.50;;;;;;;;;;771436;182;630576;-75
2022/07/02 11:30:51;;;;;;;6.73;5.83;;;;;;;;;;758150;183;620282;-73
2022/07/02 11:33:18;;;;;;;9.37;7.17;;;;;;;;;;765930;182;661873;-72
2022/07/02 11:35:43;;;;;;;8.33;5.37;;;;;;;;;;769955;183;628447;-75
2022/07/02 11:38:09;;;;;;;9.93;5.97;;;;;;;;;;762854;183;676606;-71
2022/07/02 11:40:35;;;;;;;8.23;4.87;;;;;;;;;;767303;183;623034;-76
2022/07/02 11:43:01;;;;;;;6.17;4.90;;;;;;;;;;764669;183;631080;-75
2022/07/02 11:45:27;;;;;;;5.80;5.17;;;;;;;;;;763353;183;620093;-75
2022/07/02 11:47:53;;;;;;;10.13;5.80;;;;;;;;;;764852;182;642480;-74
2022/07/02 11:50:24;;;;;;;9.60;5.63;;;;;;;;;;760094;183;627811;-77
2022/07/02 11:52:50;;;;;;;6.47;5.23;;;;;;;;;;773001;182;622801;-73
2022/07/02 11:55:16;;;;;;;7.00;5.20;;;;;;;;;;760731;179;643743;-74
2022/07/02 11:57:42;;;;;;;7.93;5.80;;;;;;;;;;766030;182;623345;-78
2022/07/02 12:00:08;;;;;;;7.73;5.27;;;;;;;;;;768328;183;624274;-76
2022/07/02 12:02:39;;;;;;;5.53;5.03;;;;;;;;;;762827;183;645511;-74
2022/07/02 12:05:06;;;;;;;7.10;4.70;;;;;;;;;;760633;183;659154;-71
2022/07/02 12:07:31;;;;;;;8.03;5.30;;;;;;;;;;764275;183;641819;-70
2022/07/02 12:09:57;;;;;;;7.80;5.70;;;;;;;;;;767158;183;626789;-71
2022/07/02 12:12:23;;;;;;;7.73;4.97;;;;;;;;;;765464;183;668522;-76
2022/07/02 12:14:49;;;;;;;11.73;6.43;;;;;;;;;;762009;183;655785;-74
2022/07/02 12:17:15;;;;;;;6.23;5.30;;;;;;;;;;765963;183;643295;-74
2022/07/02 12:19:41;;;;;;;5.83;4.67;;;;;;;;;;760543;183;665572;-71
2022/07/02 12:22:07;;;;;;;12.93;5.20;;;;;;;;;;760446;183;628971;-69
2022/07/02 12:24:32;;;;;;;5.20;4.00;;;;;;;;;;763446;183;656035;-75
2022/07/02 12:26:59;;;;;;;5.60;4.17;;;;;;;;;;769706;181;633631;-75
2022/07/02 12:32:02;;;;;;;7.10;4.57;;;;;;;;;;763855;183;670547;-77
2022/07/02 12:34:28;;;;;;;6.43;4.13;;;;;;;;;;761987;183;653253;-71
2022/07/02 12:36:54;;;;;;;5.47;4.70;;;;;;;;;;762362;183;624790;-76
2022/07/02 12:39:20;;;;;;;4.80;3.80;;;;;;;;;;761371;183;688345;-72
2022/07/02 12:41:46;;;;;;;5.57;4.87;;;;;;;;;;764619;182;636917;-75
2022/07/02 12:44:14;;;;;;;7.90;4.63;;;;;;;;;;765662;182;689872;-73
2022/07/02 12:46:42;;;;;;;5.83;4.40;;;;;;;;;;763373;183;624899;-74
2022/07/02 12:49:08;;;;;;;9.20;5.37;;;;;;;;;;759624;183;700364;-73
2022/07/02 12:51:34;;;;;;;5.30;4.13;;;;;;;;;;766886;181;639231;-75
2022/07/02 12:54:00;;;;;;;5.30;3.93;;;;;;;;;;766222;180;641877;-74
2022/07/02 12:56:25;;;;;;;4.67;4.17;;;;;;;;;;766504;182;637523;-71
2022/07/02 12:58:51;;;;;;;4.83;3.93;;;;;;;;;;764019;183;619299;-76
2022/07/02 13:01:17;;;;;;;20.03;4.90;;;;;;;;;;769247;183;635731;-73
2022/07/02 13:03:43;;;;;;;4.43;3.60;;;;;;;;;;763231;183;623583;-73
2022/07/02 13:06:09;;;;;;;6.20;3.87;;;;;;;;;;763360;183;634855;-75
2022/07/02 13:08:35;;;;;;;7.10;4.60;;;;;;;;;;769236;183;627867;-72
2022/07/02 13:11:02;;;;;;;5.93;4.53;;;;;;;;;;765680;183;654253;-74
2022/07/02 13:13:26;;;;;;;10.03;4.50;;;;;;;;;;760181;183;920291;-72
2022/07/02 13:15:52;;;;;;;6.10;3.37;;;;;;;;;;770985;183;623654;-73
2022/07/02 13:18:18;;;;;;;4.90;4.13;;;;;;;;;;763577;183;633591;-77
2022/07/02 13:20:44;;;;;;;5.07;3.20;;;;;;;;;;764372;184;629468;-73
2022/07/02 13:23:10;;;;;;;6.17;3.93;;;;;;;;;;763620;183;637978;-72
2022/07/02 13:25:36;;;;;;;5.07;3.70;;;;;;;;;;766768;183;919837;-77
2022/07/02 13:28:02;;;;;;;6.63;4.00;;;;;;;;;;764226;183;622504;-75
2022/07/02 13:30:27;;;;;;;4.93;3.93;;;;;;;;;;758840;179;921027;-74
2022/07/02 13:32:53;;;;;;;5.20;3.73;;;;;;;;;;769133;182;630858;-73
2022/07/02 13:35:20;;;;;;;5.40;3.50;;;;;;;;;;756055;183;889010;-72
2022/07/02 13:37:45;;;;;;;4.60;3.63;;;;;;;;;;765768;183;916042;-73
2022/07/02 13:40:11;;;;;;;5.20;3.60;;;;;;;;;;765348;183;635976;-74
2022/07/02 13:42:37;;;;;;;5.73;3.67;;;;;;;;;;759028;183;920717;-74
2022/07/02 13:45:03;;;;;;;6.30;4.60;;;;;;;;;;761074;183;921448;-73
2022/07/02 13:47:31;;;;;;;4.50;3.80;;;;;;;;;;758127;183;913071;-73
2022/07/02 13:49:56;;;;;;;5.60;4.27;;;;;;;;;;757916;186;914607;-75
2022/07/02 13:52:22;;;;;;;5.07;4.47;;;;;;;;;;765608;183;708238;-75
2022/07/02 13:54:48;;;;;;;5.67;4.13;;;;;;;;;;757924;183;915442;-72
2022/07/02 13:57:14;;;;;;;5.90;4.40;;;;;;;;;;764912;184;914488;-74
2022/07/02 13:59:40;;;;;;;6.67;4.00;;;;;;;;;;755712;183;917310;-74
2022/07/02 14:02:06;;;;;;;6.67;5.20;;;;;;;;;;744557;183;3516380;-76
2022/07/02 14:04:32;;;;;;;4.87;3.87;;;;;;;;;;766663;181;624472;-78
2022/07/02 14:06:57;;;;;;;4.57;3.40;;;;;;;;;;765488;183;898557;-73
2022/07/02 14:09:23;;;;;;;5.13;4.63;;;;;;;;;;768400;183;673704;-74
2022/07/02 14:11:49;;;;;;;4.10;3.50;;;;;;;;;;766773;182;918275;-74
2022/07/02 14:14:16;;;;;;;7.43;4.37;;;;;;;;;;764819;183;919378;-74
2022/07/02 14:16:41;;;;;;;5.07;3.90;;;;;;;;;;761038;179;632632;-76